Airfield :
LOGIN :

Register | Disclaimer

   EN    FR    IT 

 










Legend :    VFR   Marginal VFR   IFR   Intensive IFR   Very Intensive IFR
Visi :
Ceiling :
>= 8 km
>= 3000ft
5 to 8 km
1000 to 3000 ft
1500m to 5 km
500 to 1000 ft
800 to 1500m
200 to 500 ft
< 800m
< 200 ft
Symbols :   Thunderstorms  Fog  Heavy snow  Heavy precipitations  Wind > 20 kt
SIGMETs :     Misc.  Thunderstorms  Icing  Turbulence  Mountain Waves  Volcanic Ashes







- Airport Elevation : 781 ft
- IATA code : SKP


LWSK - Skopje

CURRENT METAR :
  • 191400Z 14015KT 9999 SCT050 BKN100 25/12 Q1005 NOSIG

EXPIRED METARs :
  • 191330Z 13018KT 9999 FEW040 SCT100 26/12 Q1005 NOSIG
  • 191300Z 12015KT 9999 FEW040 27/12 Q1005 NOSIG
  • 191230Z 12016KT 9999 FEW040 26/12 Q1005 NOSIG
  • 191200Z 14016KT 9999 FEW040 26/12 Q1006 NOSIG
  • 191130Z 14015KT 9999 FEW040 25/11 Q1006 NOSIG

TAF TAF LWSK
Valid from the 19 at 12:00 until the 20 at 12:00 UTC


191130Z 1912/2012 14015KT 9999 FEW040
TEMPO 1912/1917 13015G25KT
BECMG 1918/1921 13005KT
No reported NOTAMs for that airfield.



MET'MAP, your aeronautical weather chart ! - Copyright ORBIFLY December 2007 - Disclaimer

ORBIFLY MET'MAP TEAM :

Programming & Development : Alexandra Zaïnal
Concept & Development : Baudouin d'Aumeries
Co-Development & Prog : Marc-Olivier Méhu
Technical & hardware support : Manuel Goepfert

Contact : metmap@orbifly.com




SOURCES & CREDITS :

   NOAA